< < Back
Terminal Aerodrome Forecast


Current Version              Previous Versions:   1  2  3  4  5  6  7  8  9  

Terminal Aerodrome Forecast

409
FTUS44 KBMX 010520
TAFBHM
TAF
KBHM 010520Z 0106/0206 00000KT P6SM SKC
     FM011800 32009KT P6SM FEW090
     FM020200 32004KT P6SM FEW250=

Latest METAR

511
SAUS70 KWBC 010600 RRX
MTRBHM
METAR KBHM 010553Z 00000KT 10SM CLR 20/15 A3001 RMK AO2 SLP154 T02000150
10317 20200 403330194 50004


USA.gov is the U.S. government's official web portal to all federal, state and local government web resources and services.